Time,TemperatureF,DewpointF,PressureIn,WindDirection,WindDirectionDegrees,WindSpeedMPH,WindSpeedGustMPH,Humidity,HourlyPrecipIn,Conditions,Clouds,dailyrainin,SolarRadiationWatts/m^2,SoftwareType,DateUTC
2013-12-04 00:02:00,14.0,13.0,-100.00,ESE,106,0.0,2.0,96,0.00,,,0.00,0.000000,,2013-12-04 09:02:00,
2013-12-04 00:11:00,14.0,13.0,-100.00,ESE,106,0.0,2.0,96,0.00,,,0.00,0.000000,,2013-12-04 09:11:00,
2013-12-04 00:21:00,14.0,13.0,-100.00,ESE,106,0.0,2.0,96,0.00,,,0.00,0.000000,,2013-12-04 09:21:00,
2013-12-04 00:53:00,14.0,13.0,-100.00,East,94,0.0,1.0,97,-99.99,,,0.00,0.000000,,2013-12-04 09:53:00,
2013-12-04 01:03:00,14.0,13.0,-100.00,East,94,0.0,1.0,97,-99.99,,,0.00,0.000000,,2013-12-04 10:03:00,
2013-12-04 01:12:00,14.0,13.0,-100.00,East,94,0.0,1.0,97,-99.99,,,0.00,0.000000,,2013-12-04 10:12:00,
2013-12-04 01:23:00,14.0,13.0,-100.00,East,94,0.0,1.0,97,-99.99,,,0.00,0.000000,,2013-12-04 10:23:00,
2013-12-04 01:53:00,16.0,15.0,-100.00,ESE,103,0.0,2.0,97,0.00,,,0.00,0.000000,,2013-12-04 10:53:00,
2013-12-04 02:02:00,16.0,15.0,-100.00,ESE,103,0.0,2.0,97,0.00,,,0.00,0.000000,,2013-12-04 11:02:00,
2013-12-04 02:12:00,16.0,15.0,-100.00,ESE,103,0.0,2.0,97,0.00,,,0.00,0.000000,,2013-12-04 11:12:00,
2013-12-04 02:22:00,16.0,15.0,-100.00,ESE,103,0.0,2.0,97,0.00,,,0.00,0.000000,,2013-12-04 11:22:00,
2013-12-04 02:53:00,16.0,15.0,-100.00,ESE,119,1.0,2.0,97,-99.99,,,0.00,0.000000,,2013-12-04 11:53:00,
2013-12-04 03:02:00,16.0,15.0,-100.00,ESE,119,1.0,2.0,97,-99.99,,,0.00,0.000000,,2013-12-04 12:02:00,
2013-12-04 03:12:00,16.0,15.0,-100.00,ESE,119,1.0,2.0,97,-99.99,,,0.00,0.000000,,2013-12-04 12:12:00,
2013-12-04 03:21:00,16.0,15.0,-100.00,ESE,119,1.0,2.0,97,-99.99,,,0.00,0.000000,,2013-12-04 12:21:00,
2013-12-04 03:52:00,16.0,15.0,-100.00,ESE,104,0.0,2.0,97,0.00,,,0.00,0.000000,,2013-12-04 12:52:00,
2013-12-04 04:01:00,16.0,15.0,-100.00,ESE,104,0.0,2.0,97,0.00,,,0.00,0.000000,,2013-12-04 13:01:00,
2013-12-04 04:11:00,16.0,15.0,-100.00,ESE,104,0.0,2.0,97,0.00,,,0.00,0.000000,,2013-12-04 13:11:00,
2013-12-04 04:22:00,16.0,15.0,-100.00,ESE,104,0.0,2.0,97,0.00,,,0.00,0.000000,,2013-12-04 13:22:00,
2013-12-04 04:52:00,16.0,15.0,-100.00,SE,128,0.0,1.0,97,0.00,,,0.00,0.000000,,2013-12-04 13:52:00,
2013-12-04 05:02:00,16.0,15.0,-100.00,SE,128,0.0,1.0,97,0.00,,,0.00,0.000000,,2013-12-04 14:02:00,
2013-12-04 05:52:00,14.0,13.0,-100.00,SE,132,0.0,1.0,96,0.00,,,0.00,0.000000,,2013-12-04 14:52:00,
2013-12-04 06:02:00,14.0,13.0,-100.00,SE,132,0.0,1.0,96,0.00,,,0.00,0.000000,,2013-12-04 15:02:00,
2013-12-04 06:11:00,14.0,13.0,-100.00,SE,132,0.0,1.0,96,0.00,,,0.00,0.000000,,2013-12-04 15:11:00,
2013-12-04 06:22:00,14.0,13.0,-100.00,SE,132,0.0,1.0,96,0.00,,,0.00,0.000000,,2013-12-04 15:22:00,
2013-12-04 06:53:00,14.0,13.0,-100.00,ESE,121,0.0,1.0,96,0.00,,,0.00,0.000000,,2013-12-04 15:53:00,
2013-12-04 07:03:00,14.0,13.0,-100.00,ESE,121,0.0,1.0,96,0.00,,,0.00,0.000000,,2013-12-04 16:03:00,
2013-12-04 07:13:00,14.0,13.0,-100.00,ESE,121,0.0,1.0,96,0.00,,,0.00,0.000000,,2013-12-04 16:13:00,
2013-12-04 07:23:00,14.0,13.0,-100.00,ESE,121,0.0,1.0,96,0.00,,,0.00,0.000000,,2013-12-04 16:23:00,
2013-12-04 07:53:00,14.0,13.0,-100.00,ESE,115,0.0,2.0,96,-99.99,,,0.00,0.000000,,2013-12-04 16:53:00,
2013-12-04 08:03:00,14.0,13.0,-100.00,ESE,115,0.0,2.0,96,-99.99,,,0.00,0.000000,,2013-12-04 17:03:00,
2013-12-04 08:12:00,14.0,13.0,-100.00,ESE,115,0.0,2.0,96,-99.99,,,0.00,0.000000,,2013-12-04 17:12:00,
2013-12-04 08:22:00,14.0,13.0,-100.00,ESE,115,0.0,2.0,96,-99.99,,,0.00,0.000000,,2013-12-04 17:22:00,
2013-12-04 08:52:00,14.0,13.0,-100.00,SE,131,0.0,1.0,97,0.00,,,0.00,0.000000,,2013-12-04 17:52:00,
2013-12-04 09:02:00,14.0,13.0,-100.00,SE,131,0.0,1.0,97,0.00,,,0.00,0.000000,,2013-12-04 18:02:00,
2013-12-04 09:12:00,14.0,13.0,-100.00,SE,131,0.0,1.0,97,0.00,,,0.00,0.000000,,2013-12-04 18:12:00,
2013-12-04 09:21:00,14.0,13.0,-100.00,SE,131,0.0,1.0,97,0.00,,,0.00,0.000000,,2013-12-04 18:21:00,
2013-12-04 09:52:00,16.0,15.0,-100.00,SE,131,0.0,1.0,97,0.00,,,0.00,1.000000,,2013-12-04 18:52:00,
2013-12-04 10:02:00,16.0,15.0,-100.00,SE,131,0.0,1.0,97,0.00,,,0.00,1.000000,,2013-12-04 19:02:00,
2013-12-04 10:11:00,16.0,15.0,-100.00,SE,131,0.0,1.0,97,0.00,,,0.00,1.000000,,2013-12-04 19:11:00,
2013-12-04 10:21:00,16.0,15.0,-100.00,SE,131,0.0,1.0,97,0.00,,,0.00,1.000000,,2013-12-04 19:21:00,
2013-12-04 10:52:00,16.0,15.0,-100.00,SE,127,0.0,1.0,96,0.00,,,0.00,17.000000,,2013-12-04 19:52:00,
2013-12-04 11:01:00,16.0,15.0,-100.00,SE,127,0.0,1.0,96,0.00,,,0.00,17.000000,,2013-12-04 20:01:00,
2013-12-04 11:12:00,16.0,15.0,-100.00,SE,127,0.0,1.0,96,0.00,,,0.00,17.000000,,2013-12-04 20:12:00,
2013-12-04 11:22:00,16.0,15.0,-100.00,SE,127,0.0,1.0,96,0.00,,,0.00,17.000000,,2013-12-04 20:22:00,
2013-12-04 11:52:00,16.0,15.0,-100.00,SE,134,0.0,2.0,96,0.00,,,0.00,37.000000,,2013-12-04 20:52:00,
2013-12-04 12:02:00,16.0,15.0,-100.00,SE,134,0.0,2.0,96,0.00,,,0.00,37.000000,,2013-12-04 21:02:00,
2013-12-04 12:11:00,16.0,15.0,-100.00,SE,134,0.0,2.0,96,0.00,,,0.00,37.000000,,2013-12-04 21:11:00,
2013-12-04 12:21:00,16.0,15.0,-100.00,SE,134,0.0,2.0,96,0.00,,,0.00,37.000000,,2013-12-04 21:21:00,
2013-12-04 12:54:00,18.0,17.0,-100.00,East,92,0.0,1.0,96,0.00,,,0.00,45.000000,,2013-12-04 21:54:00,
2013-12-04 13:03:00,18.0,17.0,-100.00,East,92,0.0,1.0,96,0.00,,,0.00,45.000000,,2013-12-04 22:03:00,
2013-12-04 13:14:00,18.0,17.0,-100.00,East,92,0.0,1.0,96,0.00,,,0.00,45.000000,,2013-12-04 22:14:00,
2013-12-04 13:23:00,18.0,17.0,-100.00,East,92,0.0,1.0,96,0.00,,,0.00,45.000000,,2013-12-04 22:23:00,
2013-12-04 14:53:00,19.0,19.0,-100.00,SW,234,0.0,2.0,97,0.00,,,0.00,16.000000,,2013-12-04 23:53:00,
2013-12-04 15:02:00,19.0,19.0,-100.00,SW,234,0.0,2.0,97,0.00,,,0.00,16.000000,,2013-12-05 00:02:00,
2013-12-04 15:11:00,19.0,19.0,-100.00,SW,234,0.0,2.0,97,0.00,,,0.00,16.000000,,2013-12-05 00:11:00,
2013-12-04 15:52:00,18.0,17.0,-100.00,West,268,0.0,1.0,97,0.00,,,-99.99,8.000000,,2013-12-05 00:52:00,
2013-12-04 16:01:00,18.0,17.0,-100.00,West,268,0.0,1.0,97,0.00,,,-99.99,8.000000,,2013-12-05 01:01:00,
2013-12-04 16:52:00,16.0,15.0,-100.00,West,272,0.0,1.0,97,0.00,,,0.00,0.000000,,2013-12-05 01:52:00,
2013-12-04 17:02:00,16.0,15.0,-100.00,West,272,0.0,1.0,97,0.00,,,0.00,0.000000,,2013-12-05 02:02:00,
2013-12-04 17:11:00,16.0,15.0,-100.00,West,272,0.0,1.0,97,0.00,,,0.00,0.000000,,2013-12-05 02:11:00,
2013-12-04 17:21:00,16.0,15.0,-100.00,West,272,0.0,1.0,97,0.00,,,0.00,0.000000,,2013-12-05 02:21:00,
2013-12-04 18:12:00,16.0,15.0,-100.00,WNW,292,0.0,1.0,97,0.00,,,0.00,0.000000,,2013-12-05 03:12:00,
2013-12-04 18:21:00,16.0,15.0,-100.00,WNW,292,0.0,1.0,97,0.00,,,0.00,0.000000,,2013-12-05 03:21:00,
2013-12-04 18:54:00,18.0,17.0,-100.00,SSE,158,0.0,2.0,98,0.00,,,0.00,0.000000,,2013-12-05 03:54:00,
2013-12-04 19:04:00,18.0,17.0,-100.00,SSE,158,0.0,2.0,98,0.00,,,0.00,0.000000,,2013-12-05 04:04:00,
2013-12-04 19:13:00,18.0,17.0,-100.00,SSE,158,0.0,2.0,98,0.00,,,0.00,0.000000,,2013-12-05 04:13:00,
2013-12-04 19:23:00,18.0,17.0,-100.00,SSE,158,0.0,2.0,98,0.00,,,0.00,0.000000,,2013-12-05 04:23:00,
2013-12-04 19:53:00,18.0,17.0,-100.00,SW,233,0.0,2.0,97,0.00,,,0.00,0.000000,,2013-12-05 04:53:00,
2013-12-04 20:02:00,18.0,17.0,-100.00,SW,233,0.0,2.0,97,0.00,,,0.00,0.000000,,2013-12-05 05:02:00,
2013-12-04 20:12:00,18.0,17.0,-100.00,SW,233,0.0,2.0,97,0.00,,,0.00,0.000000,,2013-12-05 05:12:00,
2013-12-04 20:53:00,16.0,15.0,-100.00,West,280,0.0,2.0,97,0.00,,,0.00,0.000000,,2013-12-05 05:53:00,
2013-12-04 21:02:00,16.0,15.0,-100.00,West,280,0.0,2.0,97,0.00,,,0.00,0.000000,,2013-12-05 06:02:00,
2013-12-04 21:22:00,16.0,15.0,-100.00,West,280,0.0,2.0,97,0.00,,,0.00,0.000000,,2013-12-05 06:22:00,
2013-12-04 21:52:00,14.0,13.0,-100.00,WSW,253,0.0,2.0,97,0.00,,,0.00,0.000000,,2013-12-05 06:52:00,
2013-12-04 22:02:00,14.0,13.0,-100.00,WSW,253,0.0,2.0,97,0.00,,,0.00,0.000000,,2013-12-05 07:02:00,